Time;durP1;ratioP1;P1;durP2;ratioP2;P2;SDS_P1;SDS_P2;PMS_P1;PMS_P2;Temp;Humidity;BMP_temperature;BMP_pressure;BME280_temperature;BME280_humidity;BME280_pressure;Samples;Min_cycle;Max_cycle;Signal;HPM_P1;HPM_P2
2023/01/23 00:01:17;;;;;;;10.15;5.57;;;;;;;2.11;89.39;101306.69;6159415;23;20020;-88
2023/01/23 00:03:44;;;;;;;10.85;6.88;;;;;;;2.07;89.47;101316.41;6158445;23;20028;-88
2023/01/23 00:06:13;;;;;;;10.88;6.30;;;;;;;2.13;89.30;101312.75;6184478;23;20440;-89
2023/01/23 00:08:41;;;;;;;10.48;5.35;;;;;;;2.12;89.06;101309.28;6183934;23;20028;-87
2023/01/23 00:11:11;;;;;;;10.77;5.65;;;;;;;2.12;89.48;101306.66;6208777;23;20460;-87
2023/01/23 00:13:38;;;;;;;11.25;6.30;;;;;;;2.12;89.23;101306.66;6183483;23;20108;-88
2023/01/23 00:16:06;;;;;;;9.43;5.38;;;;;;;2.14;89.17;101304.84;6183588;23;20082;-88
2023/01/23 00:18:33;;;;;;;11.32;5.30;;;;;;;2.05;88.82;101299.88;6159343;23;20188;-87
2023/01/23 00:21:04;;;;;;;10.35;5.22;;;;;;;2.08;88.83;101297.16;6184011;23;20100;-87
2023/01/23 00:23:32;;;;;;;11.85;6.00;;;;;;;2.07;88.69;101299.84;6209083;23;20016;-89
2023/01/23 00:26:06;;;;;;;12.38;5.07;;;;;;;2.03;88.38;101296.44;6133216;23;20352;-87
2023/01/23 00:28:33;;;;;;;8.88;5.15;;;;;;;2.02;88.31;101281.63;6209299;23;20024;-88
2023/01/23 00:31:09;;;;;;;10.45;5.28;;;;;;;2.06;88.24;101288.50;6183028;23;20020;-88
2023/01/23 00:33:35;;;;;;;9.40;5.63;;;;;;;2.10;88.14;101284.88;6159609;23;20096;-87
2023/01/23 00:36:02;;;;;;;8.43;5.05;;;;;;;2.11;88.54;101283.97;6158551;23;20484;-87
2023/01/23 00:38:31;;;;;;;9.15;5.75;;;;;;;2.13;88.39;101279.53;6159906;23;20027;-88
2023/01/23 00:40:57;;;;;;;12.38;6.30;;;;;;;2.11;88.62;101278.75;6136305;23;20399;-87
2023/01/23 00:43:24;;;;;;;10.88;5.40;;;;;;;2.10;89.39;101287.47;6160911;23;20044;-89
2023/01/23 00:45:51;;;;;;;10.48;5.38;;;;;;;2.11;89.64;101288.34;6160100;23;20051;-88
2023/01/23 00:48:18;;;;;;;8.35;4.85;;;;;;;2.11;90.21;101288.34;6161814;23;20020;-87
2023/01/23 00:50:45;;;;;;;10.20;4.95;;;;;;;2.09;90.03;101292.78;6186265;23;20114;-88
2023/01/23 00:53:12;;;;;;;8.43;4.85;;;;;;;2.13;89.57;101294.41;6184977;23;20020;-87
2023/01/23 00:55:39;;;;;;;8.90;4.90;;;;;;;2.11;89.42;101298.81;6186242;23;20520;-88
2023/01/23 00:58:07;;;;;;;7.93;4.63;;;;;;;2.13;89.37;101297.00;6160911;23;20020;-87
2023/01/23 01:00:38;;;;;;;8.85;4.88;;;;;;;2.08;90.66;101301.53;6185071;23;20024;-88
2023/01/23 01:03:05;;;;;;;7.55;4.65;;;;;;;2.09;90.98;101300.66;6160558;23;20074;-87
2023/01/23 01:05:34;;;;;;;8.15;4.70;;;;;;;2.09;91.08;101303.28;6210811;23;20031;-88
2023/01/23 01:08:02;;;;;;;9.43;5.38;;;;;;;2.11;90.51;101309.31;6160448;23;20024;-87
2023/01/23 01:10:31;;;;;;;8.88;4.63;;;;;;;2.09;91.12;101316.38;6160266;23;20034;-87
2023/01/23 01:12:59;;;;;;;10.23;5.00;;;;;;;2.09;90.78;101308.50;6161837;23;20039;-88
2023/01/23 01:15:26;;;;;;;10.60;4.88;;;;;;;2.11;90.95;101310.19;6185142;23;20452;-88
2023/01/23 01:17:55;;;;;;;10.82;5.82;;;;;;;2.12;91.01;101306.66;6158720;23;20070;-87
2023/01/23 01:20:24;;;;;;;8.48;4.72;;;;;;;2.13;90.70;101313.59;6160709;23;20043;-87
2023/01/23 01:22:52;;;;;;;8.75;5.18;;;;;;;2.16;90.20;101312.63;6160413;23;20456;-88
2023/01/23 01:25:19;;;;;;;9.38;5.15;;;;;;;2.15;89.39;101303.94;6183918;23;20397;-84
2023/01/23 01:28:04;;;;;;;8.57;4.75;;;;;;;2.11;88.59;101310.19;6102310;23;20051;-84
2023/01/23 01:30:31;;;;;;;8.27;5.00;;;;;;;2.12;88.17;101308.41;6185320;23;20016;-87
2023/01/23 01:32:58;;;;;;;9.95;5.35;;;;;;;2.14;88.08;101306.63;6209822;23;20028;-88
2023/01/23 01:35:24;;;;;;;8.88;5.40;;;;;;;2.16;88.05;101317.88;6159803;23;20074;-87
2023/01/23 01:37:51;;;;;;;9.85;5.03;;;;;;;2.16;87.89;101320.50;6210253;23;20078;-87
2023/01/23 01:40:24;;;;;;;8.98;4.55;;;;;;;2.12;87.40;101326.75;6183977;23;20022;-88
2023/01/23 01:42:54;;;;;;;10.60;4.80;;;;;;;2.10;87.27;101331.19;6209788;23;20111;-87
2023/01/23 01:45:58;;;;;;;9.73;5.25;;;;;;;2.06;87.12;101325.19;6142730;23;20043;-87
2023/01/23 01:49:04;;;;;;;9.02;5.03;;;;;;;2.08;86.91;101318.09;6120544;23;20340;-87
2023/01/23 01:51:49;;;;;;;9.65;5.28;;;;;;;2.10;86.92;101318.06;6073157;23;20018;-87
2023/01/23 01:54:31;;;;;;;8.20;5.35;;;;;;;2.10;86.48;101321.56;6159689;23;20012;-89
2023/01/23 01:57:03;;;;;;;9.63;5.20;;;;;;;2.11;86.65;101330.25;6158416;23;20032;-89
2023/01/23 01:59:34;;;;;;;7.97;5.15;;;;;;;2.15;86.52;101332.75;6158690;23;20082;-87
2023/01/23 02:02:12;;;;;;;8.05;4.57;;;;;;;2.13;86.56;101331.94;6159549;23;20738;-87
2023/01/23 02:04:44;;;;;;;8.75;4.45;;;;;;;2.16;86.93;101333.59;6159545;23;20039;-87
2023/01/23 02:07:17;;;;;;;10.87;5.47;;;;;;;2.17;86.96;101337.97;6134917;23;20095;-87
2023/01/23 02:09:44;;;;;;;9.00;5.13;;;;;;;2.18;87.05;101335.28;6184173;23;20028;-88
2023/01/23 02:12:10;;;;;;;8.43;5.25;;;;;;;2.14;86.72;101335.44;6209870;23;20338;-85
2023/01/23 02:14:39;;;;;;;9.13;5.70;;;;;;;2.13;86.19;101346.81;6209973;23;20038;-88
2023/01/23 02:17:06;;;;;;;9.82;5.13;;;;;;;2.17;86.18;101337.97;6185288;23;20360;-87
2023/01/23 02:19:39;;;;;;;8.88;5.05;;;;;;;2.16;86.23;101338.84;6160158;23;20035;-87
2023/01/23 02:22:15;;;;;;;;;;;;;;;2.08;85.97;101343.47;6209452;23;20020;-87
2023/01/23 02:24:51;;;;;;;9.27;4.93;;;;;;;2.15;85.97;101351.09;6159549;23;19927;-87
2023/01/23 02:27:19;;;;;;;10.35;5.10;;;;;;;2.21;85.95;101341.34;6183270;23;20406;-87
2023/01/23 02:29:47;;;;;;;11.65;6.22;;;;;;;2.21;85.98;101350.06;6209635;23;20345;-87
2023/01/23 02:32:14;;;;;;;10.55;5.90;;;;;;;2.21;86.19;101346.56;6159663;23;20031;-86
2023/01/23 02:34:41;;;;;;;11.68;6.10;;;;;;;2.25;85.64;101343.81;6135992;23;20039;-88
2023/01/23 02:37:08;;;;;;;10.85;6.00;;;;;;;2.14;85.58;101348.53;6135476;23;20031;-87
2023/01/23 02:39:36;;;;;;;11.20;5.60;;;;;;;2.18;85.57;101348.38;6159380;23;20043;-88
2023/01/23 02:42:04;;;;;;;9.52;5.15;;;;;;;2.20;85.61;101343.09;6159366;23;20127;-87
2023/01/23 02:44:45;;;;;;;12.05;6.22;;;;;;;2.08;86.04;101343.47;6135477;23;20031;-89
2023/01/23 02:47:14;;;;;;;12.73;6.53;;;;;;;2.15;85.60;101345.84;6159378;23;20020;-88
2023/01/23 02:49:41;;;;;;;10.95;6.15;;;;;;;2.21;85.62;101350.06;6159818;23;20360;-88
2023/01/23 02:52:09;;;;;;;12.48;6.65;;;;;;;2.22;85.59;101353.56;6183613;23;20028;-88
2023/01/23 02:54:36;;;;;;;12.13;6.80;;;;;;;2.21;85.56;101343.97;6134344;23;20034;-89
2023/01/23 02:57:03;;;;;;;13.60;7.18;;;;;;;2.22;85.64;101349.16;6159952;23;20019;-89
2023/01/23 03:02:16;;;;;;;16.17;7.10;;;;;;;2.18;85.21;101337.03;6164225;23;20024;-88
2023/01/23 03:04:43;;;;;;;11.43;6.03;;;;;;;2.15;85.35;101342.38;6160241;23;20020;-87
2023/01/23 03:07:09;;;;;;;13.98;6.85;;;;;;;2.09;85.77;101339.97;6158848;23;20028;-87
2023/01/23 03:09:36;;;;;;;12.02;6.72;;;;;;;2.13;85.55;101344.19;6134988;23;20020;-87
2023/01/23 03:12:03;;;;;;;12.45;6.35;;;;;;;2.16;85.58;101346.72;6182894;23;20016;-88
2023/01/23 03:14:31;;;;;;;14.77;7.25;;;;;;;2.16;85.68;101338.84;6183690;23;20024;-88
2023/01/23 03:16:58;;;;;;;14.45;7.70;;;;;;;2.11;85.71;101343.38;6182725;23;20016;-91
2023/01/23 03:19:30;;;;;;;13.95;6.53;;;;;;;2.11;85.56;101346.88;6158163;23;20038;-88
2023/01/23 03:21:57;;;;;;;15.75;6.78;;;;;;;2.13;85.48;101350.28;6184444;23;20024;-88
2023/01/23 03:24:24;;;;;;;14.77;6.95;;;;;;;2.15;85.45;101353.72;6159006;23;20032;-87
2023/01/23 03:26:51;;;;;;;13.88;6.65;;;;;;;2.13;85.69;101352.03;6158352;23;20337;-87
2023/01/23 03:32:11;;;;;;;12.35;6.60;;;;;;;2.18;85.41;101352.78;6113490;23;20016;-87
2023/01/23 03:34:38;;;;;;;14.18;7.30;;;;;;;2.21;85.03;101357.06;6183550;23;20020;-88
2023/01/23 03:37:06;;;;;;;12.23;6.07;;;;;;;2.14;85.12;101343.31;6183217;23;20046;-88
2023/01/23 03:42:21;;;;;;;12.20;6.80;;;;;;;2.15;85.15;101352.88;6207580;23;20479;-88
2023/01/23 03:44:51;;;;;;;12.55;6.82;;;;;;;2.13;85.29;101347.66;6135763;23;20411;-88
2023/01/23 03:47:22;;;;;;;16.10;7.63;;;;;;;2.17;85.04;101351.91;6133658;23;20214;-86
2023/01/23 03:49:48;;;;;;;13.60;6.78;;;;;;;2.16;84.76;101350.22;6134787;23;20020;-89
2023/01/23 03:52:15;;;;;;;14.80;7.00;;;;;;;2.12;84.65;101360.81;6183314;23;20028;-90
2023/01/23 03:54:42;;;;;;;16.30;7.07;;;;;;;2.16;84.61;101352.84;6183728;23;20095;-89
2023/01/23 03:57:09;;;;;;;14.57;7.07;;;;;;;2.13;84.54;101355.50;6134208;23;20047;-89
2023/01/23 04:00:03;;;;;;;12.50;6.90;;;;;;;2.14;84.67;101351.16;6111995;23;20023;-91
2023/01/23 04:02:48;;;;;;;13.43;6.65;;;;;;;2.13;84.53;101345.03;6138369;23;20445;-89
2023/01/23 04:05:16;;;;;;;13.45;6.28;;;;;;;2.13;85.18;101354.66;6134060;23;20024;-89
2023/01/23 04:07:42;;;;;;;13.15;6.40;;;;;;;2.14;85.11;101346.78;6159487;23;20099;-90
2023/01/23 04:10:09;;;;;;;13.63;6.78;;;;;;;2.17;84.55;101358.94;6183591;23;20038;-89
2023/01/23 04:12:41;;;;;;;15.85;6.82;;;;;;;2.17;84.16;101356.31;6158665;23;20356;-89
2023/01/23 04:15:09;;;;;;;14.32;7.38;;;;;;;2.13;84.04;101357.28;6132993;23;20340;-91
2023/01/23 04:17:36;;;;;;;10.93;6.72;;;;;;;2.17;83.72;101358.94;6185066;23;20102;-89
2023/01/23 04:20:03;;;;;;;15.68;7.60;;;;;;;2.19;84.60;101357.13;6160044;23;20347;-87
2023/01/23 04:22:30;;;;;;;12.98;6.90;;;;;;;2.21;83.99;101359.69;6135885;23;20028;-87
2023/01/23 04:24:57;;;;;;;12.57;6.80;;;;;;;2.15;83.48;101350.25;6159543;23;20028;-87
2023/01/23 04:27:24;;;;;;;14.88;7.63;;;;;;;2.23;83.86;101363.13;6159205;23;20040;-89
2023/01/23 04:29:53;;;;;;;14.80;7.20;;;;;;;2.21;83.35;101365.78;6134500;23;20513;-89
2023/01/23 04:32:20;;;;;;;13.68;7.28;;;;;;;2.24;83.63;101370.06;6159617;23;20020;-89
2023/01/23 04:34:47;;;;;;;13.95;7.28;;;;;;;2.27;83.29;101372.63;6160117;23;21344;-88
2023/01/23 04:37:15;;;;;;;12.10;7.32;;;;;;;2.18;82.82;101376.34;6160959;23;20333;-90
2023/01/23 04:39:42;;;;;;;15.10;7.50;;;;;;;2.18;83.28;101385.06;6160696;23;20415;-89
2023/01/23 04:42:09;;;;;;;15.57;7.50;;;;;;;2.19;83.26;101399.06;6121451;23;20016;-89
2023/01/23 04:44:48;;;;;;;13.38;6.85;;;;;;;2.15;83.54;101397.41;6140213;23;20054;-89
2023/01/23 04:47:30;;;;;;;12.48;6.65;;;;;;;2.12;83.46;101400.13;6181869;23;20024;-88
2023/01/23 04:49:57;;;;;;;16.23;7.30;;;;;;;2.11;83.64;101401.91;6160533;23;20020;-88
2023/01/23 04:52:24;;;;;;;15.88;7.75;;;;;;;2.14;83.41;101411.44;6159384;23;20020;-88
2023/01/23 04:54:55;;;;;;;17.30;7.38;;;;;;;2.13;83.94;101407.94;6161654;23;20095;-86
2023/01/23 04:57:22;;;;;;;14.80;7.38;;;;;;;2.17;83.74;101414.81;6183262;23;20024;-88
2023/01/23 04:59:55;;;;;;;13.18;6.85;;;;;;;2.16;83.86;101412.22;6162935;23;20028;-89
2023/01/23 05:02:22;;;;;;;15.65;7.90;;;;;;;2.17;83.39;101413.97;6135286;23;20329;-90
2023/01/23 05:04:48;;;;;;;17.20;7.55;;;;;;;2.15;83.25;101423.63;6210390;23;20336;-89
2023/01/23 05:07:15;;;;;;;16.83;7.60;;;;;;;2.05;82.87;101411.69;6183687;23;20506;-89
2023/01/23 05:09:55;;;;;;;16.70;8.90;;;;;;;2.12;83.37;101419.31;6160844;23;20447;-90
2023/01/23 05:12:22;;;;;;;18.25;8.05;;;;;;;2.10;83.49;101418.50;6135373;23;20016;-89
2023/01/23 05:14:48;;;;;;;15.45;7.88;;;;;;;2.11;83.34;101422.84;6158824;23;20016;-89
2023/01/23 05:17:15;;;;;;;16.42;7.20;;;;;;;2.06;83.46;101429.09;6158343;23;20440;-89
2023/01/23 05:19:49;;;;;;;15.75;7.90;;;;;;;2.07;83.18;101415.97;6161392;23;20470;-88
2023/01/23 05:22:16;;;;;;;16.80;9.18;;;;;;;2.10;83.20;101425.50;6159159;23;20028;-87
2023/01/23 05:24:44;;;;;;;16.73;7.88;;;;;;;2.06;83.08;101418.63;6159872;23;20075;-90
2023/01/23 05:27:11;;;;;;;19.83;8.50;;;;;;;2.08;82.82;101422.06;6183885;23;20031;-89
2023/01/23 05:29:41;;;;;;;15.07;7.15;;;;;;;2.04;82.95;101429.16;6120591;23;20076;-89
2023/01/23 05:32:13;;;;;;;16.73;8.35;;;;;;;2.04;83.03;101429.16;6094478;23;20021;-89
2023/01/23 05:34:54;;;;;;;15.20;7.82;;;;;;;2.01;83.15;101423.13;6142635;23;20025;-88
2023/01/23 05:37:25;;;;;;;22.15;8.95;;;;;;;1.99;83.42;101417.09;6069922;23;20603;-91
2023/01/23 05:39:56;;;;;;;19.73;8.63;;;;;;;2.03;83.41;101419.56;6093919;23;20036;-90
2023/01/23 05:42:25;;;;;;;18.95;8.63;;;;;;;1.86;84.34;101419.19;6070623;23;20032;-89
2023/01/23 05:45:01;;;;;;;16.38;8.32;;;;;;;1.92;83.87;101411.16;6095933;23;20338;-88
2023/01/23 05:47:35;;;;;;;17.13;7.78;;;;;;;1.97;83.96;101413.66;6095499;23;20036;-89
2023/01/23 05:50:06;;;;;;;16.02;7.65;;;;;;;1.95;83.75;101409.31;6093019;23;20032;-89
2023/01/23 05:52:45;;;;;;;18.38;7.30;;;;;;;1.86;84.40;101412.19;5897639;23;20548;-90
2023/01/23 05:55:31;;;;;;;14.48;6.80;;;;;;;1.86;84.17;101419.19;5747671;24;20022;-89
2023/01/23 05:58:20;;;;;;;13.32;7.25;;;;;;;1.81;84.47;101424.56;5027081;28;20694;-89
2023/01/23 06:01:06;;;;;;;15.50;6.80;;;;;;;1.80;83.98;101422.81;5004845;28;20046;-88
2023/01/23 06:03:51;;;;;;;14.18;7.25;;;;;;;1.77;84.08;101414.19;5015947;28;20051;-88
2023/01/23 06:06:39;;;;;;;15.65;7.45;;;;;;;1.83;84.26;101419.25;5000823;28;20049;-86
2023/01/23 06:09:08;;;;;;;15.05;7.57;;;;;;;1.82;84.09;101414.94;5002360;28;20049;-87
2023/01/23 06:11:35;;;;;;;15.02;7.22;;;;;;;1.80;84.13;101417.56;5020638;28;20037;-88
2023/01/23 06:14:03;;;;;;;18.95;8.07;;;;;;;1.79;84.37;101421.09;5001799;28;20034;-87
2023/01/23 06:16:30;;;;;;;15.80;8.52;;;;;;;1.84;83.88;101418.38;5002352;28;20049;-88
2023/01/23 06:18:57;;;;;;;15.80;7.75;;;;;;;1.72;84.54;101419.53;5018851;28;20108;-88
2023/01/23 06:21:26;;;;;;;17.10;7.32;;;;;;;1.72;84.24;101425.63;5015051;28;20045;-88
2023/01/23 06:23:52;;;;;;;18.42;8.23;;;;;;;1.77;84.15;101429.91;5013443;28;20041;-89
2023/01/23 06:26:20;;;;;;;16.45;8.00;;;;;;;1.72;84.06;101440.50;5020042;28;20124;-88
2023/01/23 06:28:47;;;;;;;15.38;7.47;;;;;;;1.82;83.88;101441.13;5013827;28;20046;-88
2023/01/23 06:31:13;;;;;;;17.65;8.35;;;;;;;1.80;83.98;101440.28;5032465;28;20100;-90
2023/01/23 06:33:52;;;;;;;17.30;7.85;;;;;;;1.76;84.53;101436.06;5014667;28;20046;-85
2023/01/23 06:36:25;;;;;;;16.40;7.72;;;;;;;1.81;84.23;101439.41;4980383;28;20479;-86
2023/01/23 06:38:52;;;;;;;18.42;8.52;;;;;;;1.77;84.78;101451.72;5034293;28;20113;-86
2023/01/23 06:41:24;;;;;;;18.10;7.95;;;;;;;1.77;84.92;101450.84;5011726;28;20041;-86
2023/01/23 06:43:54;;;;;;;16.63;7.95;;;;;;;1.77;84.76;101456.94;4915963;28;20134;-87
2023/01/23 06:46:25;;;;;;;15.27;6.90;;;;;;;1.84;84.59;101465.50;4983368;28;20140;-85
2023/01/23 06:48:53;;;;;;;18.40;8.68;;;;;;;1.85;84.77;101460.22;4981261;28;20046;-86
2023/01/23 06:51:20;;;;;;;20.08;8.65;;;;;;;1.87;84.62;101474.13;4966768;28;20476;-86
2023/01/23 06:53:47;;;;;;;21.05;8.68;;;;;;;1.87;84.37;101471.53;4949349;28;20108;-81
2023/01/23 06:56:15;;;;;;;20.15;8.55;;;;;;;1.88;84.57;101478.50;4997095;28;20038;-86
2023/01/23 06:58:44;;;;;;;17.25;8.90;;;;;;;1.88;84.75;101486.34;4981372;28;20037;-85
2023/01/23 07:01:19;;;;;;;18.65;8.48;;;;;;;1.86;85.06;101498.63;4980462;28;20058;-85
2023/01/23 07:04:08;;;;;;;20.35;9.20;;;;;;;1.82;85.12;101499.59;4996550;28;21032;-85
2023/01/23 07:06:38;;;;;;;21.80;9.55;;;;;;;1.91;84.54;101506.38;4966915;28;20053;-86
2023/01/23 07:09:05;;;;;;;19.13;8.82;;;;;;;1.87;84.59;101508.19;4972244;28;20063;-86
2023/01/23 07:11:32;;;;;;;17.48;8.73;;;;;;;1.87;84.64;101513.44;5000243;28;20049;-86
2023/01/23 07:13:59;;;;;;;17.52;8.00;;;;;;;1.89;84.97;101518.66;5019560;28;20077;-86
2023/01/23 07:16:28;;;;;;;20.58;9.05;;;;;;;1.92;84.98;101519.41;5001668;28;20277;-85
2023/01/23 07:18:57;;;;;;;17.55;8.25;;;;;;;1.93;84.74;101523.78;5005595;28;20590;-86
2023/01/23 07:21:27;;;;;;;17.55;7.88;;;;;;;1.90;84.58;101525.59;4975277;28;20595;-85
2023/01/23 07:23:54;;;;;;;19.70;8.68;;;;;;;1.95;84.58;101521.94;5036484;28;20744;-86
2023/01/23 07:26:20;;;;;;;16.70;7.18;;;;;;;1.97;84.59;101527.16;5031991;28;20690;-85
2023/01/23 07:28:47;;;;;;;17.83;7.85;;;;;;;2.00;84.34;101521.84;5032556;28;20648;-86
2023/01/23 07:31:15;;;;;;;19.17;8.85;;;;;;;2.01;84.56;101536.69;4989875;28;20041;-86
2023/01/23 07:33:42;;;;;;;18.33;8.25;;;;;;;2.02;84.75;101537.53;5003620;28;20045;-86
2023/01/23 07:36:09;;;;;;;16.80;7.85;;;;;;;2.04;84.86;101536.59;5031486;28;20053;-86
2023/01/23 07:38:35;;;;;;;19.85;8.40;;;;;;;2.02;84.57;101534.91;5017048;28;20070;-86
2023/01/23 07:41:02;;;;;;;18.60;8.05;;;;;;;2.00;84.90;101539.31;4989564;28;20046;-86
2023/01/23 07:43:29;;;;;;;19.42;8.77;;;;;;;1.95;85.20;101537.66;5037526;28;20053;-87
2023/01/23 07:45:59;;;;;;;18.90;8.18;;;;;;;2.03;84.50;101534.84;4997778;28;20073;-86
2023/01/23 07:48:26;;;;;;;20.55;8.95;;;;;;;1.99;84.40;101533.22;5012856;28;20046;-85
2023/01/23 07:50:53;;;;;;;16.92;8.13;;;;;;;1.94;84.81;101528.09;5020519;28;20049;-87
2023/01/23 07:53:20;;;;;;;19.33;8.77;;;;;;;1.96;84.99;101530.69;5032940;28;20038;-85
2023/01/23 07:56:23;;;;;;;;;;;;;;;;;;;;;
2023/01/23 07:59:02;;;;;;;22.13;9.73;;;;;;;1.93;85.52;101529.00;4716190;29;20070;-86
2023/01/23 08:01:28;;;;;;;16.27;7.40;;;;;;;1.87;85.46;101531.78;4756464;29;20037;-87
2023/01/23 08:03:54;;;;;;;20.98;8.70;;;;;;;1.94;85.63;101535.09;4749442;30;20040;-86
2023/01/23 08:06:19;;;;;;;18.15;8.93;;;;;;;2.00;85.33;101541.94;4759120;29;20048;-86
2023/01/23 08:08:48;;;;;;;18.73;8.85;;;;;;;1.99;85.00;101546.31;4751485;29;20489;-86
2023/01/23 08:11:14;;;;;;;22.13;9.10;;;;;;;2.00;85.51;101542.78;4726642;29;20394;-85
2023/01/23 08:13:40;;;;;;;18.65;8.68;;;;;;;1.98;85.57;101541.97;4713405;30;20175;-87
2023/01/23 08:16:06;;;;;;;14.80;8.38;;;;;;;2.00;85.83;101544.56;4722133;30;20435;-87
2023/01/23 08:18:32;;;;;;;18.10;7.70;;;;;;;2.01;84.79;101539.28;4680529;30;20049;-86
2023/01/23 08:20:59;;;;;;;16.33;8.52;;;;;;;1.94;85.33;101537.72;4663844;30;20132;-87
2023/01/23 08:23:29;;;;;;;16.05;7.07;;;;;;;1.95;84.74;101536.81;4676856;29;20044;-87
2023/01/23 08:25:57;;;;;;;19.13;8.07;;;;;;;1.95;84.35;101540.28;4887725;28;20039;-87
2023/01/23 08:28:25;;;;;;;15.95;7.72;;;;;;;2.01;84.80;101535.78;4894206;28;20047;-87
2023/01/23 08:30:52;;;;;;;16.33;7.68;;;;;;;1.95;85.57;101542.91;4967700;28;20041;-86
2023/01/23 08:33:20;;;;;;;16.98;7.57;;;;;;;1.96;85.03;101538.56;4972013;28;20045;-87
2023/01/23 08:35:55;;;;;;;17.45;7.15;;;;;;;1.98;84.51;101531.50;4996065;28;20054;-88
2023/01/23 08:38:23;;;;;;;15.40;7.88;;;;;;;1.92;85.09;101539.53;5029825;28;20050;-86
2023/01/23 08:40:51;;;;;;;16.30;7.68;;;;;;;2.02;84.02;101532.28;5017331;28;20505;-87
2023/01/23 08:43:19;;;;;;;18.15;8.18;;;;;;;2.00;84.02;101537.56;5002158;28;20072;-87
2023/01/23 08:45:50;;;;;;;15.95;6.38;;;;;;;1.92;83.75;101529.91;5001721;28;20042;-87
2023/01/23 08:48:18;;;;;;;15.20;8.07;;;;;;;1.92;84.07;101548.22;5000393;28;20045;-87
2023/01/23 08:50:45;;;;;;;15.80;7.03;;;;;;;1.87;82.77;101538.78;4997985;28;20408;-87
2023/01/23 08:53:13;;;;;;;13.90;7.13;;;;;;;1.90;82.92;101538.69;4971412;28;20046;-87
2023/01/23 08:55:40;;;;;;;14.02;6.63;;;;;;;1.93;82.88;101538.59;4981936;28;20092;-86
2023/01/23 08:58:08;;;;;;;12.63;6.50;;;;;;;1.95;82.07;101531.56;5000017;28;20045;-87
2023/01/23 09:00:35;;;;;;;13.63;7.07;;;;;;;1.94;81.06;101532.50;4987202;28;20131;-87
2023/01/23 09:03:02;;;;;;;16.23;7.45;;;;;;;1.91;81.75;101532.56;4985684;28;20057;-87
2023/01/23 09:05:29;;;;;;;16.73;8.05;;;;;;;1.93;82.17;101544.72;4969025;28;20539;-86
2023/01/23 09:07:57;;;;;;;14.23;7.20;;;;;;;1.92;80.97;101536.91;5017060;28;20512;-87
2023/01/23 09:10:26;;;;;;;17.13;6.60;;;;;;;1.98;81.28;101534.09;4992288;28;20049;-84
2023/01/23 09:12:54;;;;;;;15.18;7.47;;;;;;;1.97;80.90;101540.25;4970995;28;20129;-86
2023/01/23 09:15:21;;;;;;;16.63;7.07;;;;;;;1.98;80.48;101535.88;4979064;28;20472;-86
2023/01/23 09:17:48;;;;;;;15.43;7.63;;;;;;;1.93;80.21;101538.59;4985266;28;20065;-86
2023/01/23 09:20:15;;;;;;;14.18;7.18;;;;;;;1.95;80.36;101540.28;4985755;28;20057;-87
2023/01/23 09:22:42;;;;;;;17.15;7.57;;;;;;;1.99;80.44;101540.25;4983954;28;20042;-86
2023/01/23 09:25:09;;;;;;;14.70;7.18;;;;;;;2.05;81.28;101538.28;4981609;28;20066;-86
2023/01/23 09:27:36;;;;;;;15.68;7.28;;;;;;;2.05;81.17;101538.28;4984819;28;20038;-86
2023/01/23 09:30:04;;;;;;;13.25;7.28;;;;;;;2.08;79.47;101550.47;4986535;28;20517;-86
2023/01/23 09:32:31;;;;;;;14.40;6.60;;;;;;;2.08;79.83;101545.22;4999375;28;20056;-86
2023/01/23 09:34:57;;;;;;;14.38;7.30;;;;;;;2.08;79.47;101546.06;5018489;28;20413;-86
2023/01/23 09:37:24;;;;;;;16.10;8.27;;;;;;;1.97;79.27;101545.50;5017051;28;20046;-86
2023/01/23 09:39:51;;;;;;;16.70;7.57;;;;;;;2.05;79.74;101555.78;5030864;28;20049;-86
2023/01/23 09:42:28;;;;;;;14.52;6.68;;;;;;;2.07;80.03;101556.63;4999546;28;20049;-85
2023/01/23 09:45:00;;;;;;;15.95;7.18;;;;;;;2.12;80.08;101542.50;4998768;28;20046;-86
2023/01/23 09:47:43;;;;;;;12.75;6.60;;;;;;;2.13;79.43;101546.81;4968135;28;20430;-86
2023/01/23 09:50:35;;;;;;;15.57;7.15;;;;;;;2.12;79.08;101557.34;4918309;28;20123;-86
2023/01/23 09:53:12;;;;;;;14.85;7.35;;;;;;;2.06;78.09;101588.94;4879702;28;20387;-86
2023/01/23 09:55:47;;;;;;;14.88;7.38;;;;;;;2.04;77.06;101559.31;4963157;28;20046;-87
2023/01/23 09:58:22;;;;;;;14.77;6.15;;;;;;;2.06;77.69;101557.50;4946299;28;20042;-86
2023/01/23 10:00:50;;;;;;;11.48;5.90;;;;;;;2.03;77.81;101554.97;4925074;28;20039;-86
2023/01/23 10:03:17;;;;;;;12.85;7.05;;;;;;;2.02;77.51;101551.47;4961098;28;20409;-86
2023/01/23 10:06:12;;;;;;;14.32;6.60;;;;;;;2.03;77.60;101547.09;4947709;28;20190;-86
2023/01/23 10:08:49;;;;;;;15.07;6.75;;;;;;;2.03;76.92;101557.59;4941157;28;20058;-86
2023/01/23 10:12:00;;;;;;;12.10;6.50;;;;;;;2.01;77.93;101543.66;4956067;28;20098;-86
2023/01/23 10:14:46;;;;;;;14.18;7.05;;;;;;;2.10;76.63;101557.38;4884221;28;20106;-86
2023/01/23 10:17:26;;;;;;;15.07;6.60;;;;;;;2.06;77.63;101547.00;4943640;28;20481;-86
2023/01/23 10:20:09;;;;;;;15.70;7.43;;;;;;;2.08;78.04;101539.97;4942174;28;20042;-86
2023/01/23 10:22:51;;;;;;;15.15;6.75;;;;;;;2.07;77.98;101544.38;4973426;28;20041;-85
2023/01/23 10:25:24;;;;;;;14.65;7.97;;;;;;;2.12;77.89;101542.50;4953802;28;20042;-86
2023/01/23 10:27:56;;;;;;;12.05;6.20;;;;;;;2.10;77.77;101535.56;4993591;28;20041;-86
2023/01/23 10:30:27;;;;;;;13.88;6.63;;;;;;;2.15;77.79;101539.78;4985531;28;20046;-85
2023/01/23 10:33:00;;;;;;;16.05;7.43;;;;;;;2.13;78.82;101552.06;4967329;28;20515;-86
2023/01/23 10:35:50;;;;;;;15.63;6.95;;;;;;;2.15;78.99;101546.78;4934507;28;20050;-83
2023/01/23 10:38:40;;;;;;;14.32;7.05;;;;;;;2.12;78.89;101545.09;4939418;28;20049;-86
2023/01/23 10:41:13;;;;;;;12.68;6.30;;;;;;;2.18;77.99;101549.31;4972170;28;20729;-86
2023/01/23 10:43:41;;;;;;;14.25;7.47;;;;;;;2.18;78.59;101547.56;4999283;28;20045;-86
2023/01/23 10:46:42;;;;;;;;;;;;;;;;;;;;;
2023/01/23 10:50:06;;;;;;;12.05;6.38;;;;;;;1.99;78.95;101537.63;4687582;29;20875;-86
2023/01/23 10:52:40;;;;;;;17.08;7.57;;;;;;;2.09;79.38;101546.97;4797779;29;20168;-86
2023/01/23 10:55:26;;;;;;;16.10;7.65;;;;;;;2.07;79.97;101540.91;4779996;29;20540;-86
2023/01/23 10:57:54;;;;;;;16.73;6.40;;;;;;;2.18;79.89;101544.06;4742272;29;20061;-85
2023/01/23 11:00:32;;;;;;;14.98;6.93;;;;;;;2.13;78.92;101544.19;4784041;29;20038;-86
2023/01/23 11:03:23;;;;;;;16.35;7.72;;;;;;;2.11;79.38;101545.13;4812309;29;20043;-86
2023/01/23 11:06:01;;;;;;;16.80;7.60;;;;;;;2.17;79.33;101545.84;4766303;29;20061;-86
2023/01/23 11:09:03;;;;;;;14.18;6.40;;;;;;;2.24;79.78;101538.69;4796781;29;20126;-83
2023/01/23 11:11:30;;;;;;;14.95;7.13;;;;;;;2.34;80.04;101526.19;4803468;29;20419;-86
2023/01/23 11:14:15;;;;;;;17.87;8.20;;;;;;;2.31;80.18;101531.50;4798479;29;20043;-86
2023/01/23 11:16:42;;;;;;;14.60;7.25;;;;;;;2.29;79.62;101533.31;4851614;29;20085;-86
2023/01/23 11:19:10;;;;;;;13.80;6.93;;;;;;;2.34;79.16;101519.19;4855218;29;20787;-86
2023/01/23 11:21:53;;;;;;;17.80;7.28;;;;;;;2.32;79.63;101536.72;4886616;28;20062;-86
2023/01/23 11:24:30;;;;;;;15.73;7.53;;;;;;;2.23;78.82;101530.84;4969132;28;20045;-86
2023/01/23 11:27:12;;;;;;;14.63;6.63;;;;;;;2.31;79.44;101529.75;4968838;28;20062;-86
2023/01/23 11:30:11;;;;;;;16.67;7.38;;;;;;;2.32;79.75;101533.25;5003635;28;20038;-86
2023/01/23 11:32:48;;;;;;;11.65;6.10;;;;;;;2.34;79.06;101540.16;4969711;28;20046;-86
2023/01/23 11:35:19;;;;;;;16.27;7.38;;;;;;;2.34;79.23;101521.81;5000075;28;22743;-86
2023/01/23 11:37:46;;;;;;;16.52;7.50;;;;;;;2.33;79.83;101530.56;4994879;28;20512;-85
2023/01/23 11:40:17;;;;;;;15.60;7.28;;;;;;;2.37;79.41;101528.75;4997957;28;20099;-86
2023/01/23 11:42:44;;;;;;;17.80;8.38;;;;;;;2.36;80.03;101527.84;4972660;28;20053;-86
2023/01/23 11:45:15;;;;;;;13.40;7.18;;;;;;;2.32;80.44;101526.25;4991893;28;20046;-86
2023/01/23 11:47:57;;;;;;;14.98;7.60;;;;;;;2.36;80.02;101530.47;4998635;28;20613;-86
2023/01/23 11:50:52;;;;;;;15.02;7.20;;;;;;;2.32;79.69;101513.13;4967284;28;20038;-86
2023/01/23 11:53:44;;;;;;;17.77;8.30;;;;;;;2.41;80.34;101522.50;4954315;28;20112;-86
2023/01/23 11:56:39;;;;;;;15.52;7.80;;;;;;;2.34;79.43;101518.31;4971435;28;20038;-86
2023/01/23 11:59:30;;;;;;;13.57;7.88;;;;;;;2.40;80.15;101520.78;4970580;28;20050;-86